Terminal Aerodrome Forecast
Issued by NWS

Home | Current Version | Previous Version | Text Only | Print | Product List | Glossary On
Versions: 1 2 3 4 5 6 7 8 9 10 11 12 13 14 15 16 17 18 19 20 21 22
784
FTUS42 TJSJ 282340
TAFJSJ
TAF
TJSJ 282340Z 2900/2924 VRB05KT P6SM SCT020 BKN050 OVC070
     FM290200 08010KT P6SM FEW060
     FM291400 08010KT P6SM FEW030 SCT050
     FM292300 10006KT P6SM FEW060=

USA.gov is the U.S. government's official web portal to all federal, state and local government web resources and services.